USCGC Polar Star — NBTM — position and weather

sailwx.info

Track history (hours):
 
Tides and Currents Weather Stations Pressure Air Temp Water Temp Dewpoint Dewpoint Depression Visibility Wind Speed Wind Dir Waves Ship Positions

Oceanographic research ship USCGC Polar Star (USA)

Detailed information on ship capabilities available from University of Delaware's Ocean Information Center and ARCUS's ALIAS (Arctic Logistics Information and Support) project.

Last reported at 2014-Aug-01 12:05 UTC. Time now 2014-Oct-31 06:07 UTC.
Position N 38°06' W 122°16'.
Warning: this ship's position is months out of date.

Type: Military. MMSI: 367255000.

Date/timePositionNaut miles runAvg speedWind from/ knotsBaromVisibWave heightAir tempDewpointWater temp
2014-Aug-01 12:05N 38°06' W 122°16'0 0.6
2014-Aug-01 11:33N 38°06' W 122°16'2 1.7
2014-Aug-01 10:33N 38°04' W 122°15'7 6.7
2014-Aug-01 09:33N 38°02' W 122°23'7 6.9
2014-Aug-01 08:33N 37°55' W 122°27'5 5.4
2014-Aug-01 07:34N 37°50' W 122°24'2 1.8
2014-Aug-01 06:33N 37°49' W 122°24'0 0.0
2014-Aug-01 01:24N 37°49' W 122°24'0 0.0
2014-Aug-01 00:33N 37°49' W 122°24'0 0.0
2014-Jul-31 23:33N 37°49' W 122°24'0 0.0
2014-Jul-31 22:33N 37°49' W 122°24'0 0.0
2014-Jul-31 21:34N 37°49' W 122°24'0 0.0
2014-Jul-31 20:33N 37°49' W 122°24'0 0.0
2014-Jul-30 23:33N 37°49' W 122°24'1 0.2
2014-Jul-30 17:24N 37°49' W 122°23'0 0.0
2014-Jul-30 16:32N 37°49' W 122°23'0 0.0
2014-Jul-30 15:32N 37°49' W 122°23'0 0.0
2014-Jul-30 14:29N 37°49' W 122°23'0 0.0
2014-Jul-30 13:32N 37°49' W 122°23'0 0.0
2014-Jul-30 12:33N 37°49' W 122°23'0 0.0
2014-Jul-30 11:33N 37°49' W 122°23'0 0.0
2014-Jul-30 10:33N 37°49' W 122°23'0 0.0
2014-Jul-30 09:33N 37°49' W 122°23'0 0.0
2014-Jul-30 08:32N 37°49' W 122°23'0 0.0
2014-Jul-30 07:32N 37°49' W 122°23'0 0.0
2014-Jul-30 06:32N 37°49' W 122°23'0 0.0
2014-Jul-30 05:33N 37°49' W 122°23'0 0.0
2014-Jul-30 04:33N 37°49' W 122°23'0 0.0
2014-Jul-30 03:33N 37°49' W 122°23'0 0.0
2014-Jul-30 02:32N 37°49' W 122°23'0 0.0
2014-Jul-30 01:32N 37°49' W 122°23'0 0.0
2014-Jul-30 00:32N 37°49' W 122°23'0 0.0
2014-Jul-29 23:33N 37°49' W 122°23'0 0.0
2014-Jul-29 22:33N 37°49' W 122°23'0 0.0
2014-Jul-29 21:33N 37°49' W 122°23'0 0.0
2014-Jul-29 20:30N 37°49' W 122°23'0 0.0
2014-Jul-29 19:33N 37°49' W 122°23'0 0.0
2014-Jul-29 18:33N 37°49' W 122°23'6 5.9
2014-Jul-29 17:33N 37°48' W 122°30'1313.4
2014-Jul-29 16:33N 37°51' W 122°47'1 1.0
2014-Jul-29 15:33N 37°52' W 122°48'1 1.0
2014-Jul-29 14:33N 37°51' W 122°47'0 0.5
2014-Jul-29 13:33N 37°51' W 122°47'9 8.6
2014-Jul-29 12:33N 37°44' W 122°41'1514.6
2014-Jul-29 11:34N 37°36' W 122°56'1414.0
2014-Jul-29 10:33N 37°28' W 123°10'1211.7
2014-Jul-29 09:33N 37°36' W 123°21'1211.5
2014-Jul-29 08:33N 37°45' W 123°30'1 0.8
2014-Jul-29 07:33N 37°46' W 123°30'6 5.9
2014-Jul-29 06:34N 37°41' W 123°25'7 6.5
2014-Jul-29 05:33N 37°36' W 123°20'6 6.5
2014-Jul-29 04:34N 37°31' W 123°15'1414.3
2014-Jul-29 03:33N 37°37' W 122°58'1616.3
2014-Jul-29 02:33N 37°46' W 122°41'1313.0
2014-Jul-29 01:33N 37°50' W 122°25'3 3.3
2014-Jul-29 00:32N 37°47' W 122°23'0 0.0
2014-Jul-28 23:32N 37°47' W 122°23'0 0.0
2014-Jul-28 22:31N 37°47' W 122°23'0 0.0
2014-Jul-26 19:32N 37°47' W 122°23'0 0.0
2014-Jul-26 18:29N 37°47' W 122°23'0 0.0
2014-Jul-26 17:32N 37°47' W 122°23'0 0.0
2014-Jul-26 16:33N 37°47' W 122°23'5 5.0
2014-Jul-26 15:33N 37°49' W 122°29'1110.9
2014-Jul-26 14:34N 37°43' W 122°40'10 9.6
2014-Jul-26 13:33N 37°34' W 122°39'1212.3
2014-Jul-26 12:33N 37°21' W 122°40'9 9.1
2014-Jul-26 11:33N 37°12' W 122°40'8 8.4
2014-Jul-26 10:33N 37°04' W 122°44'7 7.4
2014-Jul-26 09:33N 36°58' W 122°48'8 7.5
2014-Jul-26 08:33N 36°51' W 122°51'8 7.6
2014-Jul-26 07:33N 36°44' W 122°54'6 5.6
2014-Jul-26 06:33N 36°48' W 122°58'7 7.0
2014-Jul-26 05:33N 36°55' W 123°01'7 7.0
2014-Jul-26 04:33N 37°01' W 123°04'6 5.5
2014-Jul-26 03:33N 36°56' W 123°03'8 7.8
2014-Jul-26 02:33N 36°48' W 123°02'2 2.1
2014-Jul-26 01:33N 36°47' W 123°04'9 8.6
2014-Jul-26 00:33N 36°55' W 123°07'1716.5
2014-Jul-25 23:33N 37°11' W 123°12'1616.5
2014-Jul-25 22:33N 37°27' W 123°16'1211.8
2014-Jul-25 21:33N 37°37' W 123°23'1615.7
2014-Jul-25 20:33N 37°50' W 123°34'1615.6
2014-Jul-25 19:33N 38°04' W 123°44'1515.3
2014-Jul-25 18:33N 38°17' W 123°54'1514.8
2014-Jul-25 17:33N 38°31' W 124°00'  
2014-Jul-23 13:03N 48°13' W 125°54'612.7
2014-Jul-23 12:33N 48°15' W 125°45'1212.0
2014-Jul-23 11:32N 48°14' W 125°27'1111.1
2014-Jul-23 10:33N 48°21' W 125°15'1312.3
2014-Jul-23 09:32N 48°30' W 125°01'1111.7
2014-Jul-23 08:33N 48°31' W 124°44'1312.8
2014-Jul-23 07:33N 48°26' W 124°26'1312.5
2014-Jul-23 06:33N 48°21' W 124°08'1413.5
2014-Jul-23 05:30N 48°17' W 123°48'1212.5
2014-Jul-23 04:33N 48°15' W 123°30'1414.0
2014-Jul-23 03:33N 48°13' W 123°09'1614.3
2014-Jul-23 02:26N 48°11' W 122°46'1314.3
2014-Jul-23 01:33N 47°60' W 122°36'1211.9
2014-Jul-23 00:33N 47°50' W 122°27'1211.3
2014-Jul-22 23:28N 47°37' W 122°25'4 3.8
2014-Jul-22 22:31N 47°35' W 122°21'0 0.0
2014-Jul-22 21:25N 47°35' W 122°21'  
Track history (hours):
 
Tides and Currents Weather Stations Pressure Air Temp Water Temp Dewpoint Dewpoint Depression Visibility Wind Speed Wind Dir Waves Ship Positions

Oceanographic research ship USCGC Polar Star (USA)

Detailed information on ship capabilities available from University of Delaware's Ocean Information Center and ARCUS's ALIAS (Arctic Logistics Information and Support) project.

Last reported at 2014-Aug-01 12:05 UTC. Time now 2014-Oct-31 06:07 UTC.
Position N 38°06' W 122°16'.
Warning: this ship's position is months out of date.

Type: Military. MMSI: 367255000.

Date/timePositionNaut miles runAvg speedWind from/ knotsBaromVisibWave heightAir tempDewpointWater temp
2014-Aug-01 12:05N 38°06' W 122°16'0 0.6
2014-Aug-01 11:33N 38°06' W 122°16'2 1.7
2014-Aug-01 10:33N 38°04' W 122°15'7 6.7
2014-Aug-01 09:33N 38°02' W 122°23'7 6.9
2014-Aug-01 08:33N 37°55' W 122°27'5 5.4
2014-Aug-01 07:34N 37°50' W 122°24'2 1.8
2014-Aug-01 06:33N 37°49' W 122°24'0 0.0
2014-Aug-01 01:24N 37°49' W 122°24'0 0.0
2014-Aug-01 00:33N 37°49' W 122°24'0 0.0
2014-Jul-31 23:33N 37°49' W 122°24'0 0.0
2014-Jul-31 22:33N 37°49' W 122°24'0 0.0
2014-Jul-31 21:34N 37°49' W 122°24'0 0.0
2014-Jul-31 20:33N 37°49' W 122°24'0 0.0
2014-Jul-30 23:33N 37°49' W 122°24'1 0.2
2014-Jul-30 17:24N 37°49' W 122°23'0 0.0
2014-Jul-30 16:32N 37°49' W 122°23'0 0.0
2014-Jul-30 15:32N 37°49' W 122°23'0 0.0
2014-Jul-30 14:29N 37°49' W 122°23'0 0.0
2014-Jul-30 13:32N 37°49' W 122°23'0 0.0
2014-Jul-30 12:33N 37°49' W 122°23'0 0.0
2014-Jul-30 11:33N 37°49' W 122°23'0 0.0
2014-Jul-30 10:33N 37°49' W 122°23'0 0.0
2014-Jul-30 09:33N 37°49' W 122°23'0 0.0
2014-Jul-30 08:32N 37°49' W 122°23'0 0.0
2014-Jul-30 07:32N 37°49' W 122°23'0 0.0
2014-Jul-30 06:32N 37°49' W 122°23'0 0.0
2014-Jul-30 05:33N 37°49' W 122°23'0 0.0
2014-Jul-30 04:33N 37°49' W 122°23'0 0.0
2014-Jul-30 03:33N 37°49' W 122°23'0 0.0
2014-Jul-30 02:32N 37°49' W 122°23'0 0.0
2014-Jul-30 01:32N 37°49' W 122°23'0 0.0
2014-Jul-30 00:32N 37°49' W 122°23'0 0.0
2014-Jul-29 23:33N 37°49' W 122°23'0 0.0
2014-Jul-29 22:33N 37°49' W 122°23'0 0.0
2014-Jul-29 21:33N 37°49' W 122°23'0 0.0
2014-Jul-29 20:30N 37°49' W 122°23'0 0.0
2014-Jul-29 19:33N 37°49' W 122°23'0 0.0
2014-Jul-29 18:33N 37°49' W 122°23'6 5.9
2014-Jul-29 17:33N 37°48' W 122°30'1313.4
2014-Jul-29 16:33N 37°51' W 122°47'1 1.0
2014-Jul-29 15:33N 37°52' W 122°48'1 1.0
2014-Jul-29 14:33N 37°51' W 122°47'0 0.5
2014-Jul-29 13:33N 37°51' W 122°47'9 8.6
2014-Jul-29 12:33N 37°44' W 122°41'1514.6
2014-Jul-29 11:34N 37°36' W 122°56'1414.0
2014-Jul-29 10:33N 37°28' W 123°10'1211.7
2014-Jul-29 09:33N 37°36' W 123°21'1211.5
2014-Jul-29 08:33N 37°45' W 123°30'1 0.8
2014-Jul-29 07:33N 37°46' W 123°30'6 5.9
2014-Jul-29 06:34N 37°41' W 123°25'7 6.5
2014-Jul-29 05:33N 37°36' W 123°20'6 6.5
2014-Jul-29 04:34N 37°31' W 123°15'1414.3
2014-Jul-29 03:33N 37°37' W 122°58'1616.3
2014-Jul-29 02:33N 37°46' W 122°41'1313.0
2014-Jul-29 01:33N 37°50' W 122°25'3 3.3
2014-Jul-29 00:32N 37°47' W 122°23'0 0.0
2014-Jul-28 23:32N 37°47' W 122°23'0 0.0
2014-Jul-28 22:31N 37°47' W 122°23'0 0.0
2014-Jul-26 19:32N 37°47' W 122°23'0 0.0
2014-Jul-26 18:29N 37°47' W 122°23'0 0.0
2014-Jul-26 17:32N 37°47' W 122°23'0 0.0
2014-Jul-26 16:33N 37°47' W 122°23'5 5.0
2014-Jul-26 15:33N 37°49' W 122°29'1110.9
2014-Jul-26 14:34N 37°43' W 122°40'10 9.6
2014-Jul-26 13:33N 37°34' W 122°39'1212.3
2014-Jul-26 12:33N 37°21' W 122°40'9 9.1
2014-Jul-26 11:33N 37°12' W 122°40'8 8.4
2014-Jul-26 10:33N 37°04' W 122°44'7 7.4
2014-Jul-26 09:33N 36°58' W 122°48'8 7.5
2014-Jul-26 08:33N 36°51' W 122°51'8 7.6
2014-Jul-26 07:33N 36°44' W 122°54'6 5.6
2014-Jul-26 06:33N 36°48' W 122°58'7 7.0
2014-Jul-26 05:33N 36°55' W 123°01'7 7.0
2014-Jul-26 04:33N 37°01' W 123°04'6 5.5
2014-Jul-26 03:33N 36°56' W 123°03'8 7.8
2014-Jul-26 02:33N 36°48' W 123°02'2 2.1
2014-Jul-26 01:33N 36°47' W 123°04'9 8.6
2014-Jul-26 00:33N 36°55' W 123°07'1716.5
2014-Jul-25 23:33N 37°11' W 123°12'1616.5
2014-Jul-25 22:33N 37°27' W 123°16'1211.8
2014-Jul-25 21:33N 37°37' W 123°23'1615.7
2014-Jul-25 20:33N 37°50' W 123°34'1615.6
2014-Jul-25 19:33N 38°04' W 123°44'1515.3
2014-Jul-25 18:33N 38°17' W 123°54'1514.8
2014-Jul-25 17:33N 38°31' W 124°00'  
2014-Jul-23 13:03N 48°13' W 125°54'612.7
2014-Jul-23 12:33N 48°15' W 125°45'1212.0
2014-Jul-23 11:32N 48°14' W 125°27'1111.1
2014-Jul-23 10:33N 48°21' W 125°15'1312.3
2014-Jul-23 09:32N 48°30' W 125°01'1111.7
2014-Jul-23 08:33N 48°31' W 124°44'1312.8
2014-Jul-23 07:33N 48°26' W 124°26'1312.5
2014-Jul-23 06:33N 48°21' W 124°08'1413.5
2014-Jul-23 05:30N 48°17' W 123°48'1212.5
2014-Jul-23 04:33N 48°15' W 123°30'1414.0
2014-Jul-23 03:33N 48°13' W 123°09'1614.3
2014-Jul-23 02:26N 48°11' W 122°46'1314.3
2014-Jul-23 01:33N 47°60' W 122°36'1211.9
2014-Jul-23 00:33N 47°50' W 122°27'1211.3
2014-Jul-22 23:28N 47°37' W 122°25'4 3.8
2014-Jul-22 22:31N 47°35' W 122°21'0 0.0
2014-Jul-22 21:25N 47°35' W 122°21'  

Dump ship's entire track history